VNKT

Details ICAO VNKT (KTM)
Name Kathmandu Tribhuvan Intl
Region Nepal
Timezone Asia/Kathmandu (UTC+5.8)
Plans Departing 3198
Arriving 3184
Stats Elevation 4,395 ft / 1,340 m (AMSL)
Location 27.696600° 85.359200°
Runways 1
Magnetic Variation 0.726° E
Sunrise 2022-08-17 23:51:45 UTC / 2022-08-18 05:36:45 Local
Sunset 2022-08-18 12:56:11 UTC / 2022-08-18 18:41:11 Local
Advertisement - Login to hide

Runways

ID Width Length Bearing (true/mag) Surface Threshold Overrun Markings Lighting
02 151 ft / 46 m 10,016 ft / 3,053 m 21.96° / 21.23° ASPHALT 0 ft / 0 m 0 ft / 0 m PREC-APP EDGE THRESHOLD SALS REIL-OMNI
20 151 ft / 46 m 10,016 ft / 3,053 m 201.96° / 201.24° ASPHALT 404 ft / 123 m 0 ft / 0 m PREC-APP EDGE THRESHOLD REIL-OMNI

Map

Weather


0- 5 10 15 20 25 30 35+ Temperature / °C

Clouds and Precipitation
Forecast for 2022-08-18 06:00 UTC. Updated 2 hours ago

Ground ~20,000 ft ~40,000 ft Winds

METAR

VNKT 180500Z 27004KT 9999 FEW015 SCT100 29/21 Q1010 NOSIG

TAF

VNKT 172300Z 1800/1824 20002KT 7000 FEW015 SCT030 BKN100 BECMG 1801/1803 VRB02KT 6000 FEW010 SCT030 BKN100 BECMG 1804/1805 14006KT 7000 FEW010 SCT030 BECMG 1807/1809 28010KT 8000 FEW015 SCT030 BKN100 PROB30 1808/1814 23012KT 6000 -TSRA FEW025CB

Frequencies

Recorded 127.00 MHz KATHMANDU ATIS
Tower 118.10 MHz KATHMANDU TWR
Ground 121.90 MHz KATHMANDU GND
Approach 125.10 MHz KATHMANDU APP
Warning: Do not use this data for real-world aviation or navigation. No guarantee of current accuracy is given.